Time;durP1;ratioP1;P1;durP2;ratioP2;P2;SDS_P1;SDS_P2;PMS_P1;PMS_P2;Temp;Humidity;BMP_temperature;BMP_pressure;BME280_temperature;BME280_humidity;BME280_pressure;Samples;Min_cycle;Max_cycle;Signal;HPM_P1;HPM_P2
2023/04/16 00:01:25;;;;;;;7.50;1.88;;;23.10;64.90;;;;;;5195472;22;20190;-57
2023/04/16 00:03:48;;;;;;;18.85;1.88;;;23.10;64.80;;;;;;5192547;22;20022;-57
2023/04/16 00:06:11;;;;;;;4.30;1.42;;;23.10;64.80;;;;;;5195283;22;20015;-57
2023/04/16 00:08:34;;;;;;;4.78;1.67;;;23.10;64.70;;;;;;5195254;22;20019;-56
2023/04/16 00:10:57;;;;;;;4.75;1.35;;;23.10;64.70;;;;;;5191807;22;20057;-57
2023/04/16 00:13:19;;;;;;;3.35;1.60;;;23.10;64.60;;;;;;5195285;22;20020;-57
2023/04/16 00:15:41;;;;;;;2.92;1.05;;;23.10;64.60;;;;;;5194919;22;20111;-57
2023/04/16 00:18:04;;;;;;;3.28;1.15;;;23.10;64.60;;;;;;5195024;22;20077;-58
2023/04/16 00:20:26;;;;;;;2.50;1.20;;;23.10;64.50;;;;;;5194032;22;20019;-58
2023/04/16 00:22:49;;;;;;;2.20;1.00;;;23.10;64.50;;;;;;5193233;22;20008;-59
2023/04/16 00:25:12;;;;;;;2.58;1.35;;;23.10;64.40;;;;;;5179563;22;20015;-55
2023/04/16 00:27:35;;;;;;;6.93;1.57;;;23.10;64.40;;;;;;5189137;22;20018;-58
2023/04/16 00:29:57;;;;;;;1.23;0.90;;;23.00;64.30;;;;;;5191182;22;20709;-59
2023/04/16 00:32:19;;;;;;;2.72;1.00;;;23.10;64.30;;;;;;5192875;22;20363;-58
2023/04/16 00:34:42;;;;;;;2.35;1.10;;;23.10;64.30;;;;;;5193684;22;20326;-57
2023/04/16 00:37:07;;;;;;;1.42;1.00;;;23.10;64.20;;;;;;5187704;22;20016;-57
2023/04/16 00:39:29;;;;;;;11.25;1.60;;;23.10;64.10;;;;;;5197130;22;20019;-58
2023/04/16 00:41:51;;;;;;;2.80;1.10;;;23.10;64.00;;;;;;5164639;22;20023;-59
2023/04/16 00:44:14;;;;;;;2.83;0.80;;;23.10;64.00;;;;;;5197906;22;20023;-58
2023/04/16 00:46:37;;;;;;;2.42;1.02;;;23.10;63.50;;;;;;5195630;22;20066;-58
2023/04/16 00:49:00;;;;;;;2.27;1.00;;;23.10;63.90;;;;;;5187157;22;20098;-58
2023/04/16 00:51:23;;;;;;;2.15;1.15;;;23.10;63.90;;;;;;5196731;22;20011;-59
2023/04/16 00:53:45;;;;;;;2.85;1.23;;;23.10;63.90;;;;;;5195846;22;20020;-58
2023/04/16 00:56:08;;;;;;;3.58;1.30;;;23.10;63.90;;;;;;5195149;22;20465;-59
2023/04/16 00:58:32;;;;;;;2.47;1.20;;;23.10;63.90;;;;;;5197287;22;20015;-58
2023/04/16 01:00:55;;;;;;;1.45;1.17;;;23.10;63.90;;;;;;5194600;22;20011;-60
2023/04/16 01:03:18;;;;;;;1.17;0.93;;;23.10;63.90;;;;;;5187060;22;20019;-58
2023/04/16 01:05:40;;;;;;;2.42;1.17;;;23.10;63.90;;;;;;5197828;22;20093;-59
2023/04/16 01:08:03;;;;;;;3.15;1.77;;;23.10;63.90;;;;;;5195216;22;20016;-59
2023/04/16 01:10:25;;;;;;;2.95;1.15;;;23.10;63.90;;;;;;5197741;22;20425;-58
2023/04/16 01:12:47;;;;;;;2.53;1.30;;;23.10;63.80;;;;;;5196448;22;20034;-58
2023/04/16 01:15:10;;;;;;;2.65;1.45;;;23.10;63.80;;;;;;5196014;22;20007;-58
2023/04/16 01:17:32;;;;;;;1.88;1.08;;;23.10;63.80;;;;;;5197267;22;20015;-59
2023/04/16 01:20:01;;;;;;;3.45;1.30;;;23.10;63.80;;;;;;5196552;22;20015;-58
2023/04/16 01:22:23;;;;;;;1.67;1.20;;;23.10;63.80;;;;;;5165577;22;20027;-58
2023/04/16 01:24:45;;;;;;;1.65;1.30;;;23.10;63.70;;;;;;5198132;22;20023;-57
2023/04/16 01:27:08;;;;;;;1.67;0.88;;;23.10;63.70;;;;;;5195242;22;20074;-56
2023/04/16 01:29:30;;;;;;;2.53;1.30;;;23.20;63.60;;;;;;5188889;22;20008;-58
2023/04/16 01:31:53;;;;;;;1.67;0.85;;;23.20;63.60;;;;;;5197162;22;20124;-58
2023/04/16 01:34:15;;;;;;;2.17;1.20;;;23.20;63.60;;;;;;5193700;22;20012;-57
2023/04/16 01:36:38;;;;;;;2.03;1.10;;;23.20;63.60;;;;;;5197217;22;20062;-56
2023/04/16 01:39:00;;;;;;;2.42;1.30;;;23.20;63.50;;;;;;5196015;22;20008;-58
2023/04/16 01:41:22;;;;;;;3.30;1.50;;;23.20;63.50;;;;;;5198589;22;20295;-58
2023/04/16 01:43:45;;;;;;;2.20;1.20;;;23.20;63.50;;;;;;5166424;22;20024;-57
2023/04/16 01:46:30;;;;;;;3.58;1.60;;;23.20;63.50;;;;;;5199342;22;20544;-57
2023/04/16 01:48:53;;;;;;;3.30;1.20;;;23.20;63.50;;;;;;5197804;22;20028;-57
2023/04/16 01:51:16;;;;;;;2.53;1.33;;;23.20;64.10;;;;;;5196587;22;20501;-58
2023/04/16 01:53:38;;;;;;;1.75;1.17;;;23.20;63.50;;;;;;5199553;22;20027;-57
2023/04/16 01:56:00;;;;;;;2.58;1.08;;;23.20;63.50;;;;;;5198207;22;20407;-59
2023/04/16 01:58:23;;;;;;;2.05;1.05;;;23.30;63.50;;;;;;5200734;22;20413;-59
2023/04/16 02:00:45;;;;;;;3.28;1.15;;;23.20;63.40;;;;;;5200589;22;20019;-59
2023/04/16 02:03:09;;;;;;;2.00;1.17;;;23.30;63.40;;;;;;5196708;22;20065;-57
2023/04/16 02:05:31;;;;;;;2.63;1.17;;;23.30;63.40;;;;;;5200951;22;20442;-59
2023/04/16 02:07:53;;;;;;;2.47;1.10;;;23.30;63.30;;;;;;5200203;22;20027;-58
2023/04/16 02:10:16;;;;;;;1.67;0.90;;;23.30;63.30;;;;;;5200850;22;20343;-58
2023/04/16 02:12:38;;;;;;;1.33;1.10;;;23.30;63.30;;;;;;5199561;22;20085;-58
2023/04/16 02:15:01;;;;;;;2.70;1.40;;;23.30;63.30;;;;;;5199051;22;20011;-58
2023/04/16 02:17:23;;;;;;;1.98;0.90;;;23.30;63.30;;;;;;5200877;22;20274;-57
2023/04/16 02:19:46;;;;;;;1.92;0.80;;;23.30;63.30;;;;;;5168322;22;20023;-57
2023/04/16 02:22:08;;;;;;;1.83;0.80;;;23.30;63.30;;;;;;5197393;22;20019;-57
2023/04/16 02:24:31;;;;;;;1.92;1.13;;;23.30;63.30;;;;;;5197666;22;20004;-58
2023/04/16 02:26:53;;;;;;;2.97;1.20;;;23.30;63.30;;;;;;5199167;22;20023;-54
2023/04/16 02:29:16;;;;;;;1.73;1.17;;;23.30;63.30;;;;;;5200862;22;20011;-57
2023/04/16 02:31:39;;;;;;;1.35;1.00;;;23.30;63.30;;;;;;5197969;22;20531;-58
2023/04/16 02:34:02;;;;;;;2.15;1.10;;;23.30;63.20;;;;;;5199082;22;20072;-58
2023/04/16 02:36:24;;;;;;;0.98;0.80;;;23.30;63.20;;;;;;5199170;22;20476;-58
2023/04/16 02:38:47;;;;;;;1.75;0.90;;;23.30;63.20;;;;;;5198688;22;20090;-58
2023/04/16 02:41:09;;;;;;;1.85;1.15;;;23.30;63.30;;;;;;5166435;22;20019;-58
2023/04/16 02:43:32;;;;;;;1.92;1.08;;;23.30;63.20;;;;;;5198460;22;20516;-57
2023/04/16 02:45:54;;;;;;;1.35;1.10;;;23.40;63.30;;;;;;5199799;22;20120;-57
2023/04/16 02:48:17;;;;;;;2.17;1.10;;;23.30;63.20;;;;;;5189048;22;20012;-57
2023/04/16 02:50:39;;;;;;;1.52;1.10;;;23.30;63.20;;;;;;5199879;22;20077;-56
2023/04/16 02:53:03;;;;;;;1.30;1.20;;;23.30;63.20;;;;;;5198309;22;20069;-58
2023/04/16 02:55:25;;;;;;;1.20;0.95;;;23.30;63.20;;;;;;5185494;22;20007;-58
2023/04/16 02:57:48;;;;;;;2.72;1.20;;;23.30;63.20;;;;;;5199062;22;20449;-59
2023/04/16 03:00:10;;;;;;;1.45;1.02;;;23.30;63.90;;;;;;5197909;22;20034;-59
2023/04/16 03:02:33;;;;;;;2.88;1.10;;;23.30;63.20;;;;;;5194320;22;20491;-58
2023/04/16 03:04:55;;;;;;;1.65;1.05;;;23.30;63.50;;;;;;5196534;22;20070;-64
2023/04/16 03:07:18;;;;;;;2.92;1.20;;;23.40;63.90;;;;;;5198299;22;20073;-59
2023/04/16 03:09:40;;;;;;;1.83;0.93;;;23.50;64.40;;;;;;5198667;22;20011;-53
2023/04/16 03:12:03;;;;;;;3.60;1.15;;;23.50;64.10;;;;;;5195202;22;20051;-57
2023/04/16 03:14:25;;;;;;;1.75;1.30;;;23.50;63.90;;;;;;5198997;22;20015;-62
2023/04/16 03:16:47;;;;;;;2.85;1.30;;;23.50;63.70;;;;;;5198304;22;20089;-58
2023/04/16 03:19:10;;;;;;;2.75;1.50;;;23.60;64.10;;;;;;5198565;22;20464;-60
2023/04/16 03:21:32;;;;;;;2.97;1.20;;;23.60;63.90;;;;;;5199079;22;20012;-56
2023/04/16 03:23:54;;;;;;;2.55;1.33;;;23.60;63.70;;;;;;5167756;22;20098;-60
2023/04/16 03:26:17;;;;;;;2.30;1.38;;;23.70;64.10;;;;;;5188304;22;20007;-54
2023/04/16 03:28:39;;;;;;;3.40;1.30;;;23.70;64.00;;;;;;5197848;22;20023;-61
2023/04/16 03:31:02;;;;;;;2.05;1.42;;;23.80;64.10;;;;;;5198115;22;20012;-51
2023/04/16 03:33:25;;;;;;;2.65;1.40;;;23.80;64.40;;;;;;5198737;22;20533;-57
2023/04/16 03:35:54;;;;;;;2.80;1.30;;;23.90;64.10;;;;;;5197418;22;20528;-60
2023/04/16 03:38:16;;;;;;;3.72;1.50;;;24.00;64.00;;;;;;5187503;22;20090;-58
2023/04/16 03:40:39;;;;;;;2.38;1.33;;;24.00;63.80;;;;;;5197238;22;20461;-66
2023/04/16 03:43:02;;;;;;;4.07;1.40;;;24.10;63.40;;;;;;5187729;22;20663;-61
2023/04/16 03:45:24;;;;;;;4.53;1.60;;;24.10;63.10;;;;;;5130528;22;21106;-71
2023/04/16 03:47:51;;;;;;;3.30;1.30;;;24.20;63.20;;;;;;5144542;23;20012;-71
2023/04/16 03:50:13;;;;;;;3.83;1.40;;;24.20;63.20;;;;;;5145147;23;20347;-71
2023/04/16 03:52:36;;;;;;;2.97;1.23;;;24.30;62.90;;;;;;5142537;23;20024;-71
2023/04/16 03:54:58;;;;;;;2.20;1.33;;;24.40;62.60;;;;;;5145352;23;20019;-72
2023/04/16 03:57:21;;;;;;;14.77;1.60;;;24.40;62.40;;;;;;5143065;23;20521;-73
2023/04/16 03:59:43;;;;;;;4.40;1.33;;;24.40;62.30;;;;;;5137608;23;20015;-72
2023/04/16 04:02:06;;;;;;;1.73;1.20;;;24.40;62.30;;;;;;5146965;23;20027;-71
2023/04/16 04:04:28;;;;;;;2.38;1.25;;;24.40;62.10;;;;;;5149184;22;20043;-70
2023/04/16 04:06:51;;;;;;;2.83;1.35;;;24.50;61.90;;;;;;5146896;23;20017;-73
2023/04/16 04:09:15;;;;;;;1.77;1.10;;;24.60;61.70;;;;;;5146766;23;20036;-72
2023/04/16 04:11:37;;;;;;;1.88;1.55;;;24.60;61.50;;;;;;5146106;23;20032;-73
2023/04/16 04:14:00;;;;;;;3.53;1.30;;;24.60;61.30;;;;;;5147412;23;20055;-73
2023/04/16 04:16:22;;;;;;;1.42;1.08;;;24.70;61.20;;;;;;5148597;22;20012;-71
2023/04/16 04:18:44;;;;;;;1.58;1.13;;;24.70;61.00;;;;;;5148367;23;20020;-72
2023/04/16 04:21:08;;;;;;;3.25;1.35;;;24.80;60.80;;;;;;5145786;23;20020;-71
2023/04/16 04:23:30;;;;;;;1.52;1.02;;;24.80;60.70;;;;;;5147274;23;20022;-71
2023/04/16 04:25:52;;;;;;;1.42;1.00;;;24.90;60.60;;;;;;5148805;23;20024;-70
2023/04/16 04:28:15;;;;;;;1.60;1.10;;;25.00;60.40;;;;;;5136526;23;20031;-70
2023/04/16 04:30:37;;;;;;;1.70;1.20;;;25.00;60.10;;;;;;5148599;23;20044;-72
2023/04/16 04:33:00;;;;;;;1.20;1.00;;;25.10;59.90;;;;;;5147823;23;20666;-69
2023/04/16 04:35:22;;;;;;;2.60;1.20;;;25.10;59.50;;;;;;5147979;23;20334;-70
2023/04/16 04:37:44;;;;;;;1.92;0.77;;;25.20;59.40;;;;;;5147771;23;20020;-71
2023/04/16 04:40:07;;;;;;;1.02;0.90;;;25.30;59.20;;;;;;5146647;23;20100;-70
2023/04/16 04:42:30;;;;;;;1.00;0.80;;;25.40;59.00;;;;;;5145665;23;20092;-71
2023/04/16 04:44:52;;;;;;;0.90;0.80;;;25.40;58.80;;;;;;5147058;23;20055;-73
2023/04/16 04:47:15;;;;;;;2.05;0.90;;;25.50;58.50;;;;;;5146516;23;20021;-71
2023/04/16 04:49:37;;;;;;;1.38;0.80;;;25.50;58.20;;;;;;5147455;22;20517;-66
2023/04/16 04:52:00;;;;;;;1.48;1.10;;;25.50;58.00;;;;;;5136934;23;20472;-67
2023/04/16 04:54:23;;;;;;;1.67;0.93;;;25.60;57.70;;;;;;5139209;23;20356;-67
2023/04/16 04:56:46;;;;;;;1.33;0.95;;;25.60;57.50;;;;;;5148451;22;20020;-66
2023/04/16 04:59:08;;;;;;;1.45;1.13;;;25.70;57.70;;;;;;5148344;22;20152;-69
2023/04/16 05:01:30;;;;;;;1.90;1.00;;;25.70;57.50;;;;;;5146960;22;20578;-67
2023/04/16 05:03:53;;;;;;;2.42;0.93;;;25.80;57.60;;;;;;5147388;22;20023;-68
2023/04/16 05:06:16;;;;;;;1.30;0.77;;;25.90;57.60;;;;;;5148035;22;20604;-70
2023/04/16 05:08:38;;;;;;;2.65;0.60;;;26.00;57.50;;;;;;5148407;22;20040;-69
2023/04/16 05:11:01;;;;;;;0.82;0.70;;;26.10;57.40;;;;;;5147979;22;20016;-71
2023/04/16 05:13:23;;;;;;;0.45;0.45;;;26.10;57.20;;;;;;5147224;22;20632;-71
2023/04/16 05:15:46;;;;;;;2.92;0.75;;;26.20;57.20;;;;;;5147198;22;20459;-71
2023/04/16 05:18:08;;;;;;;1.30;0.60;;;26.20;57.20;;;;;;5147627;23;20016;-71
2023/04/16 05:20:31;;;;;;;2.08;0.60;;;26.30;57.20;;;;;;5148372;22;20012;-70
2023/04/16 05:22:54;;;;;;;1.42;0.60;;;26.30;56.90;;;;;;5147330;23;20048;-71
2023/04/16 05:25:17;;;;;;;1.08;0.63;;;26.40;56.80;;;;;;5138977;23;20012;-68
2023/04/16 05:27:39;;;;;;;0.40;0.40;;;26.40;56.70;;;;;;5147240;22;20391;-69
2023/04/16 05:30:02;;;;;;;1.40;0.70;;;26.50;56.70;;;;;;5139338;23;20024;-69
2023/04/16 05:32:28;;;;;;;0.97;0.47;;;26.50;56.50;;;;;;5147465;22;20032;-70
2023/04/16 05:34:50;;;;;;;1.35;0.40;;;26.60;56.50;;;;;;5148165;23;20051;-73
2023/04/16 05:37:12;;;;;;;0.70;0.40;;;26.60;56.50;;;;;;5136782;23;20017;-71
2023/04/16 05:39:35;;;;;;;1.15;0.50;;;26.60;56.40;;;;;;5147500;22;20444;-71
2023/04/16 05:41:57;;;;;;;0.73;0.30;;;26.70;56.40;;;;;;5137325;23;20439;-71
2023/04/16 05:44:19;;;;;;;1.15;0.60;;;26.70;56.50;;;;;;5144630;23;20552;-73
2023/04/16 05:46:42;;;;;;;0.80;0.40;;;26.70;56.30;;;;;;5146851;22;20028;-69
2023/04/16 05:49:04;;;;;;;0.65;0.50;;;26.70;56.30;;;;;;5147381;22;20074;-73
2023/04/16 05:51:27;;;;;;;0.30;0.30;;;26.70;55.80;;;;;;5146687;22;20017;-71
2023/04/16 05:53:49;;;;;;;1.02;0.68;;;26.70;56.20;;;;;;5145430;23;20016;-73
2023/04/16 05:56:11;;;;;;;0.95;0.50;;;26.80;55.60;;;;;;5146753;22;20099;-72
2023/04/16 05:58:34;;;;;;;0.95;0.47;;;26.80;56.00;;;;;;5148008;22;20440;-69
2023/04/16 06:00:56;;;;;;;1.00;0.50;;;26.90;55.40;;;;;;5147664;22;20399;-69
2023/04/16 06:03:19;;;;;;;0.68;0.40;;;26.90;55.00;;;;;;5148256;23;20019;-69
2023/04/16 06:05:41;;;;;;;0.57;0.43;;;27.00;54.90;;;;;;5147508;22;20483;-71
2023/04/16 06:08:04;;;;;;;0.50;0.50;;;27.00;54.80;;;;;;5148321;22;20071;-70
2023/04/16 06:10:27;;;;;;;0.75;0.50;;;27.10;54.90;;;;;;5147469;22;20103;-70
2023/04/16 06:12:49;;;;;;;0.50;0.50;;;27.10;54.70;;;;;;5137540;23;20095;-69
2023/04/16 06:15:11;;;;;;;0.70;0.65;;;27.10;54.70;;;;;;5147449;22;20054;-71
2023/04/16 06:17:34;;;;;;;0.73;0.50;;;27.10;54.60;;;;;;5146000;23;20017;-70
2023/04/16 06:19:56;;;;;;;0.40;0.40;;;27.10;54.50;;;;;;5145955;22;20009;-70
2023/04/16 06:22:19;;;;;;;0.75;0.32;;;27.10;54.30;;;;;;5145350;22;20016;-70
2023/04/16 06:24:41;;;;;;;0.50;0.35;;;27.00;54.30;;;;;;5147326;22;20063;-70
2023/04/16 06:27:04;;;;;;;2.03;0.40;;;27.00;54.30;;;;;;5145834;22;20021;-68
2023/04/16 06:29:26;;;;;;;1.95;0.60;;;27.00;54.30;;;;;;5149136;22;20008;-71
2023/04/16 06:31:49;;;;;;;1.48;0.40;;;27.00;54.30;;;;;;5147670;22;20017;-71
2023/04/16 06:34:11;;;;;;;0.38;0.35;;;27.00;54.30;;;;;;5148336;22;20094;-68
2023/04/16 06:36:33;;;;;;;1.45;0.40;;;27.00;54.30;;;;;;5138752;23;20048;-69
2023/04/16 06:38:56;;;;;;;1.15;0.52;;;27.00;54.30;;;;;;5137932;23;20028;-69
2023/04/16 06:41:18;;;;;;;0.45;0.30;;;27.00;54.30;;;;;;5147680;22;20024;-69
2023/04/16 06:43:41;;;;;;;0.30;0.30;;;27.00;54.30;;;;;;5147683;22;20012;-71
2023/04/16 06:46:03;;;;;;;1.27;0.30;;;27.00;54.30;;;;;;5147848;22;20070;-71
2023/04/16 06:50:36;;;;;;;1.10;0.60;;;27.10;53.90;;;;;;5127210;22;20029;-55
2023/04/16 06:52:59;;;;;;;1.42;0.50;;;27.00;52.70;;;;;;5143696;23;20024;-57
2023/04/16 06:55:21;;;;;;;2.60;0.52;;;27.00;50.10;;;;;;5143962;23;20160;-55
2023/04/16 06:57:43;;;;;;;2.47;0.60;;;26.80;49.10;;;;;;5142806;23;20012;-53
2023/04/16 07:00:06;;;;;;;2.30;0.35;;;26.80;48.40;;;;;;5144999;23;20020;-52
2023/04/16 07:02:29;;;;;;;2.10;0.80;;;26.70;49.00;;;;;;5144535;23;20078;-51
2023/04/16 07:04:51;;;;;;;2.95;0.55;;;26.60;48.30;;;;;;5146542;22;20012;-55
2023/04/16 07:07:14;;;;;;;0.90;0.45;;;26.50;48.20;;;;;;5143910;23;20083;-49
2023/04/16 07:09:36;;;;;;;1.38;0.68;;;26.50;49.20;;;;;;5145084;23;20202;-52
2023/04/16 07:11:59;;;;;;;1.38;0.55;;;26.40;49.10;;;;;;5144507;22;20099;-52
2023/04/16 07:14:21;;;;;;;1.35;0.50;;;26.40;49.20;;;;;;5146786;22;20012;-56
2023/04/16 07:16:44;;;;;;;1.35;0.50;;;26.30;48.90;;;;;;5145594;22;20012;-56
2023/04/16 07:19:06;;;;;;;1.42;0.60;;;26.30;49.30;;;;;;5144556;23;20027;-55
2023/04/16 07:21:30;;;;;;;1.67;0.40;;;26.20;49.10;;;;;;5126668;22;20028;-69
2023/04/16 07:23:52;;;;;;;0.88;0.50;;;26.20;48.80;;;;;;5166195;22;20078;-68
2023/04/16 07:26:15;;;;;;;1.67;0.60;;;26.20;49.40;;;;;;5166619;23;20031;-70
2023/04/16 07:28:37;;;;;;;1.17;0.60;;;26.10;49.10;;;;;;5168174;23;20020;-71
2023/04/16 07:31:00;;;;;;;1.65;0.60;;;26.00;49.20;;;;;;5169366;23;20351;-70
2023/04/16 07:33:22;;;;;;;0.50;0.45;;;26.00;49.40;;;;;;5170146;23;20638;-70
2023/04/16 07:35:44;;;;;;;0.70;0.52;;;25.90;49.30;;;;;;5172603;23;20015;-71
2023/04/16 07:38:07;;;;;;;1.02;0.60;;;25.90;49.50;;;;;;5171610;23;20047;-68
2023/04/16 07:40:29;;;;;;;2.05;0.60;;;25.90;50.10;;;;;;5170901;23;20016;-72
2023/04/16 07:42:52;;;;;;;0.93;0.40;;;25.90;50.50;;;;;;5171259;23;20019;-69
2023/04/16 07:45:14;;;;;;;0.63;0.50;;;25.90;51.00;;;;;;5172511;22;20019;-68
2023/04/16 07:47:37;;;;;;;1.70;0.68;;;25.90;51.30;;;;;;5172357;23;20020;-68
2023/04/16 07:49:59;;;;;;;0.73;0.50;;;25.90;51.80;;;;;;5140413;23;20012;-70
2023/04/16 07:52:22;;;;;;;0.73;0.47;;;25.80;51.80;;;;;;5169897;23;20103;-68
2023/04/16 07:54:44;;;;;;;2.67;1.23;;;25.80;52.00;;;;;;5169156;23;20012;-68
2023/04/16 07:57:06;;;;;;;2.60;0.90;;;25.80;50.70;;;;;;5170760;23;20020;-70
2023/04/16 07:59:29;;;;;;;2.97;1.02;;;25.70;49.70;;;;;;5171602;23;20008;-70
2023/04/16 08:01:53;;;;;;;2.03;0.90;;;25.70;49.10;;;;;;5169647;23;20023;-70
2023/04/16 08:04:21;;;;;;;4.60;0.82;;;25.70;48.90;;;;;;5169231;23;20016;-69
2023/04/16 08:06:44;;;;;;;7.20;1.20;;;25.60;49.40;;;;;;5170221;23;20012;-69
2023/04/16 08:09:06;;;;;;;3.75;1.13;;;25.50;49.80;;;;;;5169072;23;20023;-70
2023/04/16 08:11:32;;;;;;;9.25;0.98;;;25.50;50.30;;;;;;5170739;22;20013;-72
2023/04/16 08:13:54;;;;;;;5.60;1.10;;;25.50;50.90;;;;;;5165882;23;20073;-70
2023/04/16 08:16:16;;;;;;;11.95;1.92;;;25.50;51.60;;;;;;5155151;23;20008;-69
2023/04/16 08:18:39;;;;;;;4.05;1.20;;;25.40;51.90;;;;;;5167399;23;20043;-68
2023/04/16 08:21:01;;;;;;;4.88;1.48;;;25.40;52.30;;;;;;5168995;23;20030;-70
2023/04/16 08:23:23;;;;;;;6.05;1.30;;;25.40;52.60;;;;;;5167120;23;20019;-70
2023/04/16 08:25:46;;;;;;;7.45;1.60;;;25.40;53.00;;;;;;5169096;23;20012;-70
2023/04/16 08:28:09;;;;;;;4.80;1.20;;;25.40;53.20;;;;;;5169616;23;20012;-69
2023/04/16 08:30:31;;;;;;;6.45;1.33;;;25.40;53.40;;;;;;5168489;23;20012;-69
2023/04/16 08:32:54;;;;;;;11.45;2.25;;;25.40;53.50;;;;;;5166400;23;20024;-69
2023/04/16 08:35:16;;;;;;;16.60;1.63;;;25.40;53.80;;;;;;5167823;23;20054;-70
2023/04/16 08:37:39;;;;;;;13.77;1.55;;;25.40;53.90;;;;;;5169192;23;20027;-71
2023/04/16 08:40:02;;;;;;;10.55;1.45;;;25.40;54.00;;;;;;5168774;23;20019;-70
2023/04/16 08:42:47;;;;;;;9.07;1.67;;;25.40;54.20;;;;;;5169243;23;20012;-70
2023/04/16 08:45:12;;;;;;;5.72;1.20;;;25.40;54.40;;;;;;5167452;22;20016;-66
2023/04/16 08:47:36;;;;;;;13.15;2.60;;;25.40;54.40;;;;;;5168036;23;20027;-65
2023/04/16 08:50:00;;;;;;;6.55;1.80;;;25.40;54.40;;;;;;5168007;23;20016;-66
2023/04/16 08:52:23;;;;;;;;;;;25.40;54.60;;;;;;5168863;23;20024;-67
2023/04/16 08:55:22;;;;;;;6.07;1.45;;;25.30;54.50;;;;;;5170694;23;19950;-65
2023/04/16 08:57:52;;;;;;;8.93;2.20;;;25.30;54.10;;;;;;5158489;23;20028;-65
2023/04/16 09:00:16;;;;;;;4.00;1.00;;;25.30;54.70;;;;;;5167230;23;20019;-66
2023/04/16 09:02:38;;;;;;;5.85;0.93;;;25.30;54.70;;;;;;5167929;23;20085;-71
2023/04/16 09:05:02;;;;;;;5.60;1.02;;;25.30;54.80;;;;;;5164576;23;20016;-70
2023/04/16 09:07:28;;;;;;;5.75;0.90;;;25.30;54.80;;;;;;5169418;23;20019;-69
2023/04/16 09:09:52;;;;;;;8.20;0.98;;;25.30;55.00;;;;;;5168982;23;20091;-69
2023/04/16 09:12:16;;;;;;;2.00;0.80;;;25.30;54.90;;;;;;5166870;23;20427;-70
2023/04/16 09:41:41;;;;;;;5.28;0.95;;;25.00;53.50;;;;;;5110761;23;20028;-71
2023/04/16 09:44:06;;;;;;;1.65;0.60;;;25.00;53.50;;;;;;5132209;23;20017;-71
2023/04/16 09:46:35;;;;;;;0.95;0.50;;;25.00;54.20;;;;;;5136840;23;20028;-72
2023/04/16 09:48:57;;;;;;;0.82;0.50;;;24.90;53.20;;;;;;5135068;23;20012;-70
2023/04/16 09:51:20;;;;;;;0.68;0.40;;;24.90;53.20;;;;;;5135595;23;20021;-72
2023/04/16 09:53:42;;;;;;;0.50;0.50;;;24.90;53.10;;;;;;5105888;23;20056;-72
2023/04/16 09:56:10;;;;;;;0.93;0.63;;;24.80;52.80;;;;;;5135123;23;20644;-72
2023/04/16 09:58:35;;;;;;;1.67;0.70;;;24.80;53.00;;;;;;5136337;23;20020;-73
2023/04/16 10:01:02;;;;;;;1.95;0.55;;;24.80;51.90;;;;;;5137403;23;20025;-73
2023/04/16 10:03:32;;;;;;;1.58;0.80;;;24.80;52.50;;;;;;5129191;23;20020;-72
2023/04/16 10:05:54;;;;;;;1.17;0.73;;;24.80;52.70;;;;;;5134000;23;20020;-69
2023/04/16 10:08:17;;;;;;;2.85;1.02;;;24.70;53.10;;;;;;5136210;23;20503;-71
2023/04/16 10:10:40;;;;;;;0.98;0.68;;;24.70;53.70;;;;;;5137957;23;20463;-72
2023/04/16 10:13:02;;;;;;;1.70;1.00;;;24.70;53.70;;;;;;5136800;23;20024;-72
2023/04/16 10:15:26;;;;;;;1.73;0.47;;;24.70;53.70;;;;;;5137967;23;20035;-74
2023/04/16 10:17:49;;;;;;;3.70;0.60;;;24.70;53.30;;;;;;5108744;23;20021;-73
2023/04/16 10:20:12;;;;;;;0.80;0.60;;;24.70;53.20;;;;;;5137456;23;20023;-73
2023/04/16 10:22:34;;;;;;;1.10;0.65;;;24.70;53.30;;;;;;5138270;23;20028;-73
2023/04/16 10:24:58;;;;;;;2.67;0.70;;;24.70;53.40;;;;;;5138100;23;20013;-72
2023/04/16 10:27:21;;;;;;;1.33;0.63;;;24.70;54.10;;;;;;5139090;23;20482;-73
2023/04/16 10:29:44;;;;;;;1.05;0.93;;;24.70;53.40;;;;;;5137965;23;20559;-72
2023/04/16 10:32:07;;;;;;;0.77;0.47;;;24.70;53.00;;;;;;5139915;23;20063;-73
2023/04/16 10:34:30;;;;;;;3.08;0.65;;;24.70;53.10;;;;;;5137570;23;20491;-73
2023/04/16 10:36:54;;;;;;;1.08;0.55;;;24.70;53.60;;;;;;5137861;23;20066;-71
2023/04/16 10:39:22;;;;;;;4.13;0.80;;;24.70;52.90;;;;;;5144290;23;20324;-75
2023/04/16 10:41:45;;;;;;;1.70;0.50;;;24.60;52.90;;;;;;5163719;23;20319;-75
2023/04/16 10:44:09;;;;;;;1.85;0.50;;;24.70;52.80;;;;;;5131410;23;20021;-73
2023/04/16 10:46:37;;;;;;;0.85;0.50;;;24.60;52.70;;;;;;5134206;23;20020;-75
2023/04/16 10:49:15;;;;;;;0.52;0.40;;;24.70;52.80;;;;;;5155088;23;20008;-75
2023/04/16 10:51:37;;;;;;;0.80;0.55;;;24.60;52.60;;;;;;5164044;23;20917;-73
2023/04/16 10:54:07;;;;;;;0.82;0.50;;;24.60;52.70;;;;;;5163129;23;20095;-72
2023/04/16 10:56:32;;;;;;;0.80;0.40;;;24.60;52.60;;;;;;5162212;23;20102;-72
2023/04/16 10:58:55;;;;;;;2.17;0.65;;;24.60;52.60;;;;;;5163264;23;20016;-74
2023/04/16 11:01:18;;;;;;;1.13;0.50;;;24.60;53.40;;;;;;5164268;23;20024;-74
2023/04/16 11:03:47;;;;;;;0.73;0.50;;;24.60;52.50;;;;;;5154355;23;20091;-72
2023/04/16 11:06:12;;;;;;;1.20;0.45;;;24.60;52.60;;;;;;5164499;23;20417;-73
2023/04/16 11:08:34;;;;;;;0.47;0.40;;;24.60;52.40;;;;;;5140522;23;20794;-71
2023/04/16 11:10:58;;;;;;;1.27;0.90;;;24.60;52.10;;;;;;5163109;23;20016;-72
2023/04/16 11:13:21;;;;;;;1.10;0.80;;;24.60;52.40;;;;;;5163753;23;20344;-73
2023/04/16 11:15:44;;;;;;;0.63;0.40;;;24.60;51.80;;;;;;5163882;23;20095;-72
2023/04/16 11:18:06;;;;;;;1.05;0.60;;;24.60;51.80;;;;;;5153445;23;20027;-72
2023/04/16 11:20:29;;;;;;;1.27;0.57;;;24.60;52.00;;;;;;5164460;23;20008;-73
2023/04/16 11:22:53;;;;;;;0.60;0.60;;;24.60;52.30;;;;;;5162397;23;20022;-71
2023/04/16 11:25:29;;;;;;;0.47;0.45;;;24.60;52.40;;;;;;5163834;23;20031;-72
2023/04/16 11:27:52;;;;;;;0.77;0.55;;;24.60;52.50;;;;;;5162661;23;20020;-72
2023/04/16 11:30:14;;;;;;;0.53;0.40;;;24.60;52.70;;;;;;5164530;23;20215;-74
2023/04/16 11:32:37;;;;;;;1.40;0.93;;;24.60;52.70;;;;;;5162452;23;20023;-74
2023/04/16 11:35:19;;;;;;;1.05;0.60;;;24.60;52.80;;;;;;5164258;23;20023;-72
2023/04/16 11:37:42;;;;;;;0.52;0.32;;;24.60;52.90;;;;;;5163067;23;20854;-72
2023/04/16 11:40:05;;;;;;;0.43;0.33;;;24.60;52.90;;;;;;5131655;23;20099;-72
2023/04/16 11:42:28;;;;;;;0.80;0.40;;;24.60;52.90;;;;;;5132105;23;20076;-72
2023/04/16 11:45:02;;;;;;;0.80;0.52;;;24.60;52.90;;;;;;5163503;23;20553;-72
2023/04/16 11:47:24;;;;;;;0.50;0.50;;;24.60;53.00;;;;;;5162380;23;20020;-72
2023/04/16 11:49:47;;;;;;;2.85;0.43;;;24.60;53.00;;;;;;5130429;23;20741;-71
2023/04/16 11:52:10;;;;;;;0.63;0.50;;;24.60;53.00;;;;;;5166419;22;20027;-71
2023/04/16 11:54:33;;;;;;;0.40;0.30;;;24.60;52.90;;;;;;5163208;23;20015;-72
2023/04/16 11:56:56;;;;;;;0.30;0.30;;;24.60;52.90;;;;;;5163866;23;20016;-73
2023/04/16 11:59:22;;;;;;;0.55;0.40;;;24.60;52.80;;;;;;5163996;23;20020;-72
2023/04/16 12:01:56;;;;;;;0.60;0.40;;;24.60;52.80;;;;;;5162647;23;20541;-72
2023/04/16 12:04:21;;;;;;;0.57;0.38;;;24.60;52.90;;;;;;5164273;23;20011;-72
2023/04/16 12:07:05;;;;;;;0.52;0.45;;;24.60;52.90;;;;;;5162600;23;20392;-71
2023/04/16 12:09:28;;;;;;;0.75;0.60;;;24.60;53.00;;;;;;5153059;23;20764;-72
2023/04/16 12:11:50;;;;;;;0.80;0.60;;;24.60;52.90;;;;;;5162405;23;20074;-70
2023/04/16 12:14:13;;;;;;;1.00;0.60;;;24.60;53.00;;;;;;5162113;23;20416;-75
2023/04/16 12:16:35;;;;;;;1.67;0.90;;;24.60;51.90;;;;;;5131161;23;20016;-73
2023/04/16 12:19:02;;;;;;;0.98;0.70;;;24.60;52.00;;;;;;5161084;23;20187;-76
2023/04/16 12:21:25;;;;;;;1.35;0.65;;;24.50;51.60;;;;;;5163899;23;20012;-76
2023/04/16 12:23:53;;;;;;;0.82;0.60;;;24.50;50.00;;;;;;5165396;23;20023;-76
2023/04/16 12:26:16;;;;;;;1.25;0.70;;;24.50;49.70;;;;;;5162593;23;20741;-76
2023/04/16 12:28:39;;;;;;;1.73;0.80;;;24.40;49.80;;;;;;5168857;23;20023;-76
2023/04/16 12:31:02;;;;;;;1.48;0.85;;;24.30;49.40;;;;;;5169518;23;20020;-79
2023/04/16 12:33:25;;;;;;;9.10;0.93;;;24.30;50.10;;;;;;5168262;23;20024;-74
2023/04/16 12:35:47;;;;;;;3.17;0.80;;;24.30;51.00;;;;;;5168161;23;20022;-73
2023/04/16 12:38:10;;;;;;;3.50;0.70;;;24.30;50.90;;;;;;5169032;23;20066;-71
2023/04/16 12:40:34;;;;;;;2.80;0.90;;;24.30;51.50;;;;;;5168989;22;20024;-72
2023/04/16 12:42:57;;;;;;;6.25;1.38;;;24.20;51.80;;;;;;5169346;23;20012;-71
2023/04/16 12:45:19;;;;;;;1.88;0.60;;;24.20;52.10;;;;;;5169693;23;20034;-72
2023/04/16 12:47:42;;;;;;;1.20;0.73;;;24.20;52.40;;;;;;5169875;23;20016;-73
2023/04/16 12:50:04;;;;;;;5.50;0.93;;;24.20;52.30;;;;;;5170485;23;20043;-76
2023/04/16 12:52:27;;;;;;;1.45;0.43;;;24.20;52.40;;;;;;5169370;23;20042;-80
2023/04/16 12:54:50;;;;;;;6.10;0.73;;;24.20;52.70;;;;;;5168090;23;20020;-72
2023/04/16 12:57:12;;;;;;;1.83;0.70;;;24.20;52.80;;;;;;5144073;23;20012;-74